createdAt,value
2023-04-06T00:01:28.719Z,10.50
2023-04-06T00:03:59.194Z,10.40
2023-04-06T00:06:29.813Z,10.40
2023-04-06T00:09:00.826Z,10.40
2023-04-06T00:11:31.596Z,10.40
2023-04-06T00:14:04.756Z,10.40
2023-04-06T00:16:35.276Z,10.30
2023-04-06T00:19:05.843Z,10.30
2023-04-06T00:21:36.298Z,10.30
2023-04-06T00:24:07.782Z,10.30
2023-04-06T00:26:38.188Z,10.20
2023-04-06T00:29:11.499Z,10.20
2023-04-06T00:31:41.939Z,10.20
2023-04-06T00:34:12.514Z,10.20
2023-04-06T00:36:42.960Z,10.10
2023-04-06T00:39:13.949Z,10.10
2023-04-06T00:41:52.712Z,10.20
2023-04-06T00:44:25.678Z,10.20
2023-04-06T00:46:56.172Z,10.10
2023-04-06T00:49:26.730Z,10.10
2023-04-06T00:51:57.160Z,10.10
2023-04-06T00:54:27.752Z,10.10
2023-04-06T00:56:58.701Z,10.00
2023-04-06T00:59:34.225Z,10.00
2023-04-06T01:02:06.483Z,10.00
2023-04-06T01:04:43.705Z,10.00
2023-04-06T01:07:21.253Z,10.00
2023-04-06T01:10:05.798Z,10.00
2023-04-06T01:12:38.596Z,9.90
2023-04-06T01:15:17.842Z,10.00
2023-04-06T01:17:53.364Z,10.00
2023-04-06T01:20:24.056Z,9.90
2023-04-06T01:22:57.860Z,9.90
2023-04-06T01:25:28.746Z,9.90
2023-04-06T01:28:10.130Z,9.80
2023-04-06T01:30:55.176Z,9.90
2023-04-06T01:33:55.097Z,9.90
2023-04-06T01:36:28.429Z,9.90
2023-04-06T01:39:14.165Z,9.90
2023-04-06T01:41:44.942Z,9.90
2023-04-06T01:44:16.075Z,9.90
2023-04-06T01:46:47.059Z,9.80
2023-04-06T01:49:22.113Z,9.80
2023-04-06T01:51:57.487Z,9.80
2023-04-06T01:54:31.278Z,9.80
2023-04-06T01:57:24.728Z,9.70
2023-04-06T02:00:01.499Z,9.70
2023-04-06T02:02:44.121Z,9.70
2023-04-06T02:05:21.835Z,9.70
2023-04-06T02:07:54.169Z,9.70
2023-04-06T02:10:34.958Z,9.70
2023-04-06T02:13:13.185Z,9.70
2023-04-06T02:15:48.514Z,9.70
2023-04-06T02:18:19.591Z,9.70
2023-04-06T02:20:49.988Z,9.70
2023-04-06T02:23:20.497Z,9.70
2023-04-06T02:25:53.492Z,9.60
2023-04-06T02:28:23.974Z,9.60
2023-04-06T02:30:54.570Z,9.60
2023-04-06T02:33:29.609Z,9.60
2023-04-06T02:36:00.693Z,9.50
2023-04-06T02:38:31.965Z,9.60
2023-04-06T02:41:07.639Z,9.50
2023-04-06T02:43:38.216Z,9.60
2023-04-06T02:46:26.258Z,9.50
2023-04-06T02:48:57.544Z,9.50
2023-04-06T02:51:29.931Z,9.50
2023-04-06T02:54:10.358Z,9.30
2023-04-06T02:56:43.583Z,9.30
2023-04-06T02:59:14.658Z,9.40
2023-04-06T03:01:51.491Z,9.40
2023-04-06T03:04:24.002Z,9.40
2023-04-06T03:06:55.485Z,9.30
2023-04-06T03:09:37.267Z,9.30
2023-04-06T03:12:10.852Z,9.30
2023-04-06T03:15:04.665Z,9.30
2023-04-06T03:17:35.300Z,9.20
2023-04-06T03:20:10.094Z,9.30
2023-04-06T03:22:40.602Z,9.20
2023-04-06T03:25:14.331Z,9.20
2023-04-06T03:27:50.689Z,9.30
2023-04-06T03:30:23.422Z,9.20
2023-04-06T03:32:54.216Z,9.20
2023-04-06T03:35:26.904Z,9.20
2023-04-06T03:37:57.420Z,9.10
2023-04-06T03:40:28.328Z,9.10
2023-04-06T03:43:01.460Z,9.10
2023-04-06T03:45:32.912Z,9.10
2023-04-06T03:48:03.556Z,9.20
2023-04-06T03:50:36.941Z,9.10
2023-04-06T03:53:10.008Z,9.10
2023-04-06T03:55:41.808Z,9.10
2023-04-06T03:58:14.884Z,9.20
2023-04-06T04:00:45.331Z,9.10
2023-04-06T04:03:15.897Z,9.10
2023-04-06T04:05:47.383Z,9.10
2023-04-06T04:08:17.912Z,9.10
2023-04-06T04:10:48.353Z,9.10
2023-04-06T04:13:21.591Z,9.00
2023-04-06T04:15:54.817Z,9.10
2023-04-06T04:18:25.344Z,9.10
2023-04-06T04:20:55.891Z,9.10
2023-04-06T04:23:28.116Z,9.10
2023-04-06T04:25:58.515Z,9.00
2023-04-06T04:28:31.672Z,9.00
2023-04-06T04:31:02.272Z,9.00
2023-04-06T04:33:36.482Z,9.00
2023-04-06T04:36:12.863Z,9.00
2023-04-06T04:38:46.763Z,9.00
2023-04-06T04:41:17.772Z,8.90
2023-04-06T04:43:50.978Z,9.00
2023-04-06T04:46:26.238Z,8.90
2023-04-06T04:48:58.191Z,8.90
2023-04-06T04:51:28.718Z,9.00
2023-04-06T04:54:25.296Z,8.90
2023-04-06T04:56:55.802Z,8.90
2023-04-06T04:59:44.063Z,8.90
2023-04-06T05:02:21.240Z,8.90
2023-04-06T05:05:13.437Z,8.90
2023-04-06T05:07:44.855Z,8.90
2023-04-06T05:10:23.927Z,8.90
2023-04-06T05:12:59.430Z,8.90
2023-04-06T05:15:35.977Z,8.90
2023-04-06T05:18:14.344Z,8.90
2023-04-06T05:20:44.957Z,8.90
2023-04-06T05:23:15.895Z,8.90
2023-04-06T05:25:47.490Z,8.90
2023-04-06T05:28:22.906Z,8.80
2023-04-06T05:30:58.141Z,8.90
2023-04-06T05:33:30.996Z,8.90
2023-04-06T05:36:15.021Z,8.90
2023-04-06T05:38:49.013Z,8.90
2023-04-06T05:41:37.046Z,8.80
2023-04-06T05:44:07.782Z,8.80
2023-04-06T05:46:41.202Z,8.90
2023-04-06T05:49:16.479Z,8.90
2023-04-06T05:51:47.055Z,8.80
2023-04-06T05:54:17.698Z,8.80
2023-04-06T05:56:49.340Z,8.90
2023-04-06T05:59:19.958Z,8.90
2023-04-06T06:01:53.087Z,8.90
2023-04-06T06:04:24.478Z,8.90
2023-04-06T06:06:57.849Z,8.80
2023-04-06T06:09:37.364Z,8.80
2023-04-06T06:12:31.373Z,8.90
2023-04-06T06:15:02.819Z,8.90
2023-04-06T06:17:40.031Z,8.90
2023-04-06T06:20:12.125Z,8.90
2023-04-06T06:22:43.854Z,8.90
2023-04-06T06:25:20.077Z,9.00
2023-04-06T06:27:52.201Z,9.00
2023-04-06T06:30:24.183Z,9.00
2023-04-06T06:32:58.121Z,8.90
2023-04-06T06:35:29.276Z,9.00
2023-04-06T06:37:59.871Z,9.00
2023-04-06T06:40:31.810Z,9.00
2023-04-06T06:43:02.777Z,9.00
2023-04-06T06:45:53.939Z,9.00
2023-04-06T06:48:27.069Z,9.00
2023-04-06T06:50:57.743Z,9.00
2023-04-06T06:53:28.553Z,9.10
2023-04-06T06:55:59.874Z,9.00
2023-04-06T06:58:30.634Z,9.10
2023-04-06T07:01:01.505Z,9.10
2023-04-06T07:03:36.908Z,9.10
2023-04-06T07:06:07.629Z,9.00
2023-04-06T07:08:38.077Z,9.10
2023-04-06T07:11:08.688Z,9.10
2023-04-06T07:13:39.209Z,9.10
2023-04-06T07:16:10.024Z,9.10
2023-04-06T07:18:44.184Z,9.10
2023-04-06T07:21:14.709Z,9.10
2023-04-06T07:23:45.510Z,9.20
2023-04-06T07:26:15.972Z,9.20
2023-04-06T07:28:46.484Z,9.20
2023-04-06T07:31:18.210Z,9.20
2023-04-06T07:33:51.494Z,9.20
2023-04-06T07:36:22.586Z,9.20
2023-04-06T07:38:53.031Z,9.30
2023-04-06T07:41:23.681Z,9.20
2023-04-06T07:43:54.308Z,9.30
2023-04-06T07:46:24.893Z,9.30
2023-04-06T07:48:58.333Z,9.30
2023-04-06T07:51:29.285Z,9.20
2023-04-06T07:54:00.620Z,9.30
2023-04-06T07:56:31.163Z,9.30
2023-04-06T07:59:01.833Z,9.30
2023-04-06T08:01:33.551Z,9.30
2023-04-06T08:04:06.974Z,9.40
2023-04-06T08:06:37.709Z,9.40
2023-04-06T08:09:08.237Z,9.40
2023-04-06T08:11:38.819Z,9.40
2023-04-06T08:14:09.688Z,9.40
2023-04-06T08:16:40.296Z,9.40
2023-04-06T08:19:13.412Z,9.40
2023-04-06T08:21:43.965Z,9.50
2023-04-06T08:24:14.540Z,9.50
2023-04-06T08:26:45.914Z,9.50
2023-04-06T08:29:17.558Z,9.50
2023-04-06T08:31:48.021Z,9.50
2023-04-06T08:34:21.116Z,9.50
2023-04-06T08:36:51.740Z,9.60
2023-04-06T08:39:26.657Z,9.50
2023-04-06T08:41:58.194Z,9.60
2023-04-06T08:44:28.802Z,9.60
2023-04-06T08:46:59.518Z,9.60
2023-04-06T08:49:32.879Z,9.70
2023-04-06T08:52:04.492Z,9.70
2023-04-06T08:54:35.162Z,9.70
2023-04-06T08:57:06.691Z,9.80
2023-04-06T08:59:37.934Z,9.70
2023-04-06T09:02:10.495Z,9.80
2023-04-06T09:04:43.937Z,9.80
2023-04-06T09:07:14.549Z,9.80
2023-04-06T09:09:49.115Z,9.80
2023-04-06T09:12:29.516Z,9.80
2023-04-06T09:15:00.779Z,9.80
2023-04-06T09:17:33.913Z,9.80
2023-04-06T09:20:08.391Z,9.90
2023-04-06T09:22:42.621Z,9.90
2023-04-06T09:25:14.482Z,9.90
2023-04-06T09:27:45.679Z,9.90
2023-04-06T09:30:19.272Z,10.00
2023-04-06T09:32:54.528Z,10.00
2023-04-06T09:35:31.244Z,10.00
2023-04-06T09:38:01.950Z,10.00
2023-04-06T09:40:32.600Z,10.10
2023-04-06T09:43:05.643Z,10.10
2023-04-06T09:45:36.318Z,10.10
2023-04-06T09:48:08.585Z,10.10
2023-04-06T09:50:42.611Z,10.10
2023-04-06T09:53:13.726Z,10.10
2023-04-06T09:55:47.417Z,10.10
2023-04-06T09:58:21.081Z,10.20
2023-04-06T10:00:57.336Z,10.10
2023-04-06T10:03:34.384Z,10.10
2023-04-06T10:06:11.712Z,10.10
2023-04-06T10:08:44.283Z,10.10
2023-04-06T10:11:15.067Z,10.20
2023-04-06T10:13:45.911Z,10.10
2023-04-06T10:16:18.406Z,10.20
2023-04-06T10:18:55.079Z,10.20
2023-04-06T10:21:29.856Z,10.10
2023-04-06T10:24:03.501Z,10.10
2023-04-06T10:26:34.338Z,10.20
2023-04-06T10:29:08.677Z,10.10
2023-04-06T10:31:46.375Z,10.20
2023-04-06T10:34:18.691Z,10.10
2023-04-06T10:36:51.871Z,10.10
2023-04-06T10:39:30.056Z,10.20
2023-04-06T10:42:11.934Z,10.20
2023-04-06T10:44:47.721Z,10.20
2023-04-06T10:47:22.014Z,10.20
2023-04-06T10:49:52.390Z,10.20
2023-04-06T10:52:26.099Z,10.20
2023-04-06T10:54:57.837Z,10.20
2023-04-06T10:57:34.164Z,10.20
2023-04-06T11:00:05.161Z,10.30
2023-04-06T11:02:35.851Z,10.30
2023-04-06T11:05:06.594Z,10.30
2023-04-06T11:07:40.741Z,10.30
2023-04-06T11:10:17.616Z,10.30
2023-04-06T11:12:55.892Z,10.30
2023-04-06T11:15:26.789Z,10.40
2023-04-06T11:17:57.309Z,10.30
2023-04-06T11:20:28.213Z,10.30
2023-04-06T11:23:03.063Z,10.40
2023-04-06T11:25:33.882Z,10.40
2023-04-06T11:28:04.432Z,10.40
2023-04-06T11:30:35.128Z,10.40
2023-04-06T11:33:06.434Z,10.40
2023-04-06T11:35:38.008Z,10.40
2023-04-06T11:38:11.207Z,10.40
2023-04-06T11:40:42.156Z,10.40
2023-04-06T11:43:16.675Z,10.50
2023-04-06T11:45:47.661Z,10.50
2023-04-06T11:48:26.456Z,10.40
2023-04-06T11:51:02.238Z,10.40
2023-04-06T11:53:35.408Z,10.50
2023-04-06T11:56:06.040Z,10.40
2023-04-06T11:58:36.685Z,10.40
2023-04-06T12:01:10.307Z,10.50
2023-04-06T12:03:40.931Z,10.50
2023-04-06T12:06:11.660Z,10.50
2023-04-06T12:08:45.959Z,10.50
2023-04-06T12:11:16.512Z,10.40
2023-04-06T12:13:47.011Z,10.50
2023-04-06T12:16:17.690Z,10.50
2023-04-06T12:18:48.292Z,10.50
2023-04-06T12:21:18.940Z,10.50
2023-04-06T12:23:52.225Z,10.40
2023-04-06T12:26:22.885Z,10.50
2023-04-06T12:28:53.481Z,10.50
2023-04-06T12:31:26.820Z,10.50
2023-04-06T12:33:57.492Z,10.60
2023-04-06T12:36:28.124Z,10.50
2023-04-06T12:39:01.894Z,10.60
2023-04-06T12:41:32.466Z,10.60
2023-04-06T12:44:03.465Z,10.60
2023-04-06T12:46:34.737Z,10.60
2023-04-06T12:49:05.297Z,10.70
2023-04-06T12:51:35.801Z,10.60
2023-04-06T12:54:08.952Z,10.70
2023-04-06T12:56:39.490Z,10.70
2023-04-06T12:59:10.123Z,10.70
2023-04-06T13:01:41.106Z,10.70
2023-04-06T13:04:11.599Z,10.70
2023-04-06T13:06:42.077Z,10.60
2023-04-06T13:09:15.298Z,10.70
2023-04-06T13:11:45.879Z,10.70
2023-04-06T13:14:16.294Z,10.60
2023-04-06T13:16:47.356Z,10.70
2023-04-06T13:19:19.481Z,10.70
2023-04-06T13:21:49.982Z,10.70
2023-04-06T13:24:23.107Z,10.60
2023-04-06T13:26:53.694Z,10.70
2023-04-06T13:29:24.225Z,10.70
2023-04-06T13:31:54.924Z,10.70
2023-04-06T13:34:25.471Z,10.60
2023-04-06T13:36:56.013Z,10.60
2023-04-06T13:39:29.286Z,10.50
2023-04-06T13:42:00.703Z,10.50
2023-04-06T13:44:33.035Z,10.50
2023-04-06T13:47:03.630Z,10.60
2023-04-06T13:49:34.480Z,10.60
2023-04-06T13:52:05.090Z,10.60
2023-04-06T13:54:38.108Z,10.60
2023-04-06T13:57:08.928Z,10.70
2023-04-06T13:59:40.218Z,10.70
2023-04-06T14:02:12.845Z,10.70
2023-04-06T14:04:43.286Z,10.60
2023-04-06T14:07:13.702Z,10.60
2023-04-06T14:09:46.742Z,10.60
2023-04-06T14:12:17.142Z,10.60
2023-04-06T14:14:47.676Z,10.60
2023-04-06T14:17:18.101Z,10.60
2023-04-06T14:19:48.696Z,10.60
2023-04-06T14:22:19.089Z,10.70
2023-04-06T14:24:52.262Z,10.60
2023-04-06T14:27:23.203Z,10.60
2023-04-06T14:29:54.200Z,10.60
2023-04-06T14:32:25.938Z,10.60
2023-04-06T14:34:56.443Z,10.60
2023-04-06T14:37:27.466Z,10.70
2023-04-06T14:40:00.818Z,10.70
2023-04-06T14:42:31.198Z,10.60
2023-04-06T14:45:01.790Z,10.60
2023-04-06T14:47:32.198Z,10.60
2023-04-06T14:50:02.682Z,10.60
2023-04-06T14:52:33.080Z,10.60
2023-04-06T14:55:06.437Z,10.60
2023-04-06T14:57:36.813Z,10.60
2023-04-06T15:00:09.338Z,10.60
2023-04-06T15:02:40.022Z,10.60
2023-04-06T15:05:11.884Z,10.70
2023-04-06T15:07:42.470Z,10.70
2023-04-06T15:10:15.997Z,10.70
2023-04-06T15:12:46.570Z,10.70
2023-04-06T15:15:16.912Z,10.60
2023-04-06T15:17:47.378Z,10.60
2023-04-06T15:20:18.045Z,10.60
2023-04-06T15:22:48.992Z,10.70
2023-04-06T15:25:22.085Z,10.70
2023-04-06T15:27:52.607Z,10.70
2023-04-06T15:30:23.077Z,10.60
2023-04-06T15:32:58.872Z,10.70
2023-04-06T15:35:29.979Z,10.80
2023-04-06T15:38:00.965Z,10.80
2023-04-06T15:40:33.944Z,10.80
2023-04-06T15:43:04.352Z,10.80
2023-04-06T15:45:35.217Z,10.90
2023-04-06T15:48:06.156Z,10.90
2023-04-06T15:50:37.326Z,10.90
2023-04-06T15:53:07.764Z,10.90
2023-04-06T15:55:40.757Z,10.90
2023-04-06T15:58:11.220Z,10.90
2023-04-06T16:00:41.687Z,10.90
2023-04-06T16:03:12.347Z,10.90
2023-04-06T16:05:53.673Z,10.90
2023-04-06T16:08:29.891Z,10.90
2023-04-06T16:11:02.897Z,10.90
2023-04-06T16:13:33.282Z,10.90
2023-04-06T16:16:04.247Z,11.00
2023-04-06T16:18:36.488Z,11.00
2023-04-06T16:21:07.382Z,11.00
2023-04-06T16:23:37.802Z,11.00
2023-04-06T16:26:18.307Z,11.00
2023-04-06T16:28:49.557Z,11.00
2023-04-06T16:31:23.982Z,11.10
2023-04-06T16:33:56.827Z,11.10
2023-04-06T16:36:27.803Z,11.10
2023-04-06T16:38:58.705Z,11.10
2023-04-06T16:41:32.385Z,11.10
2023-04-06T16:44:02.760Z,11.10
2023-04-06T16:46:34.117Z,11.10
2023-04-06T16:49:07.080Z,11.10
2023-04-06T16:51:38.178Z,11.10
2023-04-06T16:54:08.662Z,11.10
2023-04-06T16:56:41.641Z,11.10
2023-04-06T16:59:12.274Z,11.10
2023-04-06T17:01:42.982Z,11.20
2023-04-06T17:04:13.773Z,11.10
2023-04-06T17:06:44.216Z,11.10
2023-04-06T17:09:14.552Z,11.10
2023-04-06T17:11:47.506Z,11.20
2023-04-06T17:14:19.266Z,11.10
2023-04-06T17:16:49.664Z,11.10
2023-04-06T17:19:20.060Z,11.10
2023-04-06T17:21:51.961Z,11.10
2023-04-06T17:24:22.937Z,11.20
2023-04-06T17:26:56.778Z,11.20
2023-04-06T17:29:27.199Z,11.20
2023-04-06T17:31:57.807Z,11.20
2023-04-06T17:34:28.150Z,11.20
2023-04-06T17:36:58.557Z,11.20
2023-04-06T17:39:28.982Z,11.20
2023-04-06T17:42:04.746Z,11.20
2023-04-06T17:44:35.281Z,11.20
2023-04-06T17:47:05.736Z,11.20
2023-04-06T17:49:36.191Z,11.20
2023-04-06T17:52:06.651Z,11.20
2023-04-06T17:54:37.330Z,11.20
2023-04-06T17:57:10.842Z,11.20
2023-04-06T17:59:43.877Z,11.20
2023-04-06T18:02:16.789Z,11.20
2023-04-06T18:04:47.219Z,11.20
2023-04-06T18:07:17.740Z,11.30
2023-04-06T18:09:48.146Z,11.20
2023-04-06T18:12:21.480Z,11.30
2023-04-06T18:14:52.499Z,11.30
2023-04-06T18:17:23.500Z,11.20
2023-04-06T18:19:53.866Z,11.30
2023-04-06T18:22:24.272Z,11.30
2023-04-06T18:24:54.682Z,11.30
2023-04-06T18:27:27.648Z,11.30
2023-04-06T18:30:00.023Z,11.20
2023-04-06T18:32:31.163Z,11.20
2023-04-06T18:35:01.577Z,11.20
2023-04-06T18:37:32.037Z,11.20
2023-04-06T18:40:02.441Z,11.20
2023-04-06T18:42:35.389Z,11.20
2023-04-06T18:45:05.888Z,11.20
2023-04-06T18:47:36.453Z,11.20
2023-04-06T18:50:07.034Z,11.20
2023-04-06T18:52:37.386Z,11.20
2023-04-06T18:55:09.058Z,11.20
2023-04-06T18:57:42.021Z,11.20
2023-04-06T19:00:13.876Z,11.20
2023-04-06T19:02:44.570Z,11.20
2023-04-06T19:05:15.803Z,11.20
2023-04-06T19:07:49.674Z,11.20
2023-04-06T19:10:20.076Z,11.20
2023-04-06T19:12:53.111Z,11.20
2023-04-06T19:15:23.771Z,11.20
2023-04-06T19:17:54.221Z,11.30
2023-04-06T19:20:24.805Z,11.20
2023-04-06T19:25:25.779Z,11.20
2023-04-06T19:27:58.752Z,11.20
2023-04-06T19:30:29.239Z,11.20
2023-04-06T19:32:59.759Z,11.10
2023-04-06T19:35:30.233Z,11.20
2023-04-06T19:38:00.649Z,11.20
2023-04-06T19:40:31.016Z,11.10
2023-04-06T19:43:04.056Z,11.10
2023-04-06T19:45:34.497Z,11.10
2023-04-06T19:48:05.004Z,11.10
2023-04-06T19:50:35.754Z,11.10
2023-04-06T19:53:07.023Z,11.10
2023-04-06T19:55:37.602Z,11.10
2023-04-06T19:58:10.579Z,11.10
2023-04-06T20:00:40.996Z,11.10
2023-04-06T20:03:11.572Z,11.10
2023-04-06T20:05:42.199Z,11.10
2023-04-06T20:08:12.566Z,11.10
2023-04-06T20:10:43.023Z,11.10
2023-04-06T20:13:16.090Z,11.10
2023-04-06T20:15:46.511Z,11.10
2023-04-06T20:18:16.833Z,11.00
2023-04-06T20:20:47.264Z,11.00
2023-04-06T20:23:17.833Z,11.10
2023-04-06T20:25:48.161Z,11.00
2023-04-06T20:28:22.433Z,11.10
2023-04-06T20:30:55.119Z,11.00
2023-04-06T20:33:25.748Z,11.10
2023-04-06T20:36:02.038Z,11.10
2023-04-06T20:38:33.776Z,11.00
2023-04-06T20:41:04.879Z,11.00
2023-04-06T20:43:37.840Z,11.10
2023-04-06T20:46:09.410Z,11.00
2023-04-06T20:48:40.033Z,11.00
2023-04-06T20:51:10.382Z,11.00
2023-04-06T20:53:40.751Z,11.00
2023-04-06T20:56:11.396Z,11.00
2023-04-06T20:58:44.397Z,11.00
2023-04-06T21:01:18.639Z,11.00
2023-04-06T21:03:49.188Z,11.00
2023-04-06T21:06:19.625Z,11.00
2023-04-06T21:08:50.111Z,11.00
2023-04-06T21:11:20.695Z,11.00
2023-04-06T21:13:53.684Z,11.00
2023-04-06T21:16:24.030Z,11.00
2023-04-06T21:18:54.874Z,11.00
2023-04-06T21:21:25.191Z,11.00
2023-04-06T21:23:55.975Z,11.00
2023-04-06T21:26:26.303Z,11.00
2023-04-06T21:28:59.251Z,11.00
2023-04-06T21:31:29.681Z,11.00
2023-04-06T21:34:00.194Z,11.00
2023-04-06T21:36:30.575Z,11.00
2023-04-06T21:39:00.946Z,11.00
2023-04-06T21:41:32.099Z,11.00
2023-04-06T21:44:05.081Z,11.10
2023-04-06T21:46:35.963Z,10.90
2023-04-06T21:49:06.281Z,11.00
2023-04-06T21:51:36.611Z,10.90
2023-04-06T21:54:06.973Z,10.90
2023-04-06T21:56:37.314Z,10.90
2023-04-06T21:59:10.232Z,10.90
2023-04-06T22:01:40.596Z,10.90
2023-04-06T22:04:11.218Z,10.90
2023-04-06T22:06:42.135Z,10.90
2023-04-06T22:09:12.797Z,10.90
2023-04-06T22:11:43.513Z,10.80
2023-04-06T22:14:17.889Z,10.80
2023-04-06T22:16:48.664Z,10.80
2023-04-06T22:19:19.096Z,10.90
2023-04-06T22:21:49.487Z,10.80
2023-04-06T22:24:20.200Z,10.80
2023-04-06T22:26:51.309Z,10.80
2023-04-06T22:29:24.281Z,10.70
2023-04-06T22:31:55.609Z,10.70
2023-04-06T22:34:26.190Z,10.80
2023-04-06T22:36:57.315Z,10.70
2023-04-06T22:39:27.776Z,10.70
2023-04-06T22:41:58.059Z,10.80
2023-04-06T22:44:31.124Z,10.80
2023-04-06T22:47:01.451Z,10.70
2023-04-06T22:49:31.839Z,10.80
2023-04-06T22:52:02.211Z,10.80
2023-04-06T22:54:32.577Z,10.80
2023-04-06T22:57:03.196Z,10.80
2023-04-06T22:59:36.254Z,10.80
2023-04-06T23:02:07.148Z,10.80
2023-04-06T23:04:37.819Z,10.80
2023-04-06T23:07:08.152Z,10.80
2023-04-06T23:09:38.462Z,10.80
2023-04-06T23:12:09.263Z,10.70
2023-04-06T23:14:42.185Z,10.70
2023-04-06T23:17:12.928Z,10.70
2023-04-06T23:19:43.256Z,10.70
2023-04-06T23:22:13.610Z,10.70
2023-04-06T23:24:43.904Z,10.70
2023-04-06T23:27:14.323Z,10.70
2023-04-06T23:29:47.325Z,10.70
2023-04-06T23:32:17.685Z,10.70
2023-04-06T23:34:48.054Z,10.70
2023-04-06T23:37:18.371Z,10.70
2023-04-06T23:39:48.821Z,10.70
2023-04-06T23:42:19.247Z,10.70
2023-04-06T23:44:52.352Z,10.70
2023-04-06T23:47:22.631Z,10.70
2023-04-06T23:49:52.984Z,10.80
2023-04-06T23:52:23.325Z,10.70
2023-04-06T23:54:54.064Z,10.70
2023-04-06T23:57:24.478Z,10.70
